EJU49VM LIRF-LFLL
Flight info
| Callsign | EJU49VM |
|---|---|
| Flight time | N/A |
| Altitude | 36000 |
| Route | XENOL5AXNEMBO7A/25 NEMBO DCT LAGEN DCT TOP DCT IXUSA DCT RONOP/N0398F280 DCT GIGUS/N0392F270 Z40 AMVAR |
| Aircraft | A319/M-SDE2E3FGIJ1RWXYZ/LB1 |
Departure
| Time | N/A |
|---|---|
| Airport | Rome–Fiumicino Leonardo da Vinci International Airport (LIRF) |
Arrival
| Time | 2026-04-28 12:00 |
|---|---|
| Airport | Lyon Saint-Exupéry Airport (LFLL) |
| Time | Latitude | Longitude | Altitude | Speed | Heading |
|---|---|---|---|---|---|
| 2026-04-28 11:42 | 45.38751 | 5.50192 | 30750 ft | 441 kts | 1° |
| 2026-04-28 11:42 | 45.41738 | 5.51281 | 30228 ft | 448 kts | 22° |
| 2026-04-28 11:43 | 45.44303 | 5.53837 | 29542 ft | 454 kts | 44° |
| 2026-04-28 11:43 | 45.46069 | 5.57562 | 28846 ft | 457 kts | 66° |
| 2026-04-28 11:43 | 45.46827 | 5.61880 | 28169 ft | 456 kts | 86° |
| 2026-04-28 11:43 | 45.46543 | 5.66370 | 27476 ft | 453 kts | 107° |
| 2026-04-28 11:44 | 45.45268 | 5.70415 | 26811 ft | 447 kts | 126° |
| 2026-04-28 11:44 | 45.43959 | 5.72658 | 26372 ft | 442 kts | 139° |
| 2026-04-28 11:44 | 45.41471 | 5.75143 | 25722 ft | 434 kts | 157° |
| 2026-04-28 11:44 | 45.38618 | 5.76389 | 25089 ft | 425 kts | 176° |
| 2026-04-28 11:45 | 45.35696 | 5.76205 | 24469 ft | 417 kts | 196° |
| 2026-04-28 11:45 | 45.33060 | 5.74663 | 23849 ft | 407 kts | 215° |
| 2026-04-28 11:45 | 45.30999 | 5.72071 | 23194 ft | 396 kts | 233° |
| 2026-04-28 11:45 | 45.29646 | 5.68728 | 22484 ft | 388 kts | 250° |
| 2026-04-28 11:46 | 45.29112 | 5.65004 | 21808 ft | 384 kts | 268° |
| 2026-04-28 11:46 | 45.29411 | 5.61258 | 21141 ft | 382 kts | 285° |
| 2026-04-28 11:46 | 45.30504 | 5.57831 | 20492 ft | 382 kts | 302° |
| 2026-04-28 11:46 | 45.32191 | 5.54936 | 19849 ft | 379 kts | 309° |
| 2026-04-28 11:47 | 45.33936 | 5.52150 | 19226 ft | 377 kts | 309° |
| 2026-04-28 11:47 | 45.35712 | 5.49397 | 18628 ft | 380 kts | 314° |
| 2026-04-28 11:47 | 45.37872 | 5.47176 | 17976 ft | 385 kts | 325° |
| 2026-04-28 11:47 | 45.40150 | 5.45189 | 17273 ft | 381 kts | 326° |
| 2026-04-28 11:48 | 45.42378 | 5.43252 | 16667 ft | 369 kts | 326° |
| 2026-04-28 11:48 | 45.44534 | 5.41377 | 16084 ft | 358 kts | 325° |
| 2026-04-28 11:48 | 45.46638 | 5.39542 | 15517 ft | 349 kts | 326° |
| 2026-04-28 11:48 | 45.48690 | 5.37750 | 14953 ft | 342 kts | 326° |
| 2026-04-28 11:49 | 45.50852 | 5.36379 | 14383 ft | 340 kts | 341° |
| 2026-04-28 11:49 | 45.53146 | 5.35814 | 13818 ft | 337 kts | 355° |
| 2026-04-28 11:49 | 45.55474 | 5.35686 | 13159 ft | 334 kts | 356° |
| 2026-04-28 11:49 | 45.57786 | 5.35556 | 12590 ft | 328 kts | 356° |
| 2026-04-28 11:50 | 45.60029 | 5.35425 | 12235 ft | 316 kts | 356° |
| 2026-04-28 11:50 | 45.62196 | 5.35296 | 11880 ft | 310 kts | 356° |
| 2026-04-28 11:50 | 45.64351 | 5.35164 | 11514 ft | 309 kts | 356° |
| 2026-04-28 11:50 | 45.66499 | 5.35033 | 11154 ft | 308 kts | 356° |
| 2026-04-28 11:51 | 45.68640 | 5.34904 | 10786 ft | 307 kts | 356° |
| 2026-04-28 11:51 | 45.70779 | 5.34777 | 10420 ft | 307 kts | 356° |
| 2026-04-28 11:51 | 45.72894 | 5.34652 | 10039 ft | 307 kts | 356° |
| 2026-04-28 11:51 | 45.75022 | 5.34498 | 9695 ft | 305 kts | 353° |
| 2026-04-28 11:52 | 45.77074 | 5.33810 | 9345 ft | 300 kts | 338° |
| 2026-04-28 11:52 | 45.78959 | 5.32518 | 8969 ft | 296 kts | 329° |
| 2026-04-28 11:52 | 45.80743 | 5.31160 | 8660 ft | 293 kts | 330° |
| 2026-04-28 11:52 | 45.82549 | 5.29799 | 8244 ft | 293 kts | 330° |
| 2026-04-28 11:53 | 45.84214 | 5.28210 | 8046 ft | 279 kts | 317° |
| 2026-04-28 11:53 | 45.85624 | 5.26390 | 7910 ft | 266 kts | 316° |
| 2026-04-28 11:53 | 45.86995 | 5.24624 | 7539 ft | 266 kts | 316° |
| 2026-04-28 11:53 | 45.88396 | 5.22821 | 6830 ft | 275 kts | 316° |
| 2026-04-28 11:54 | 45.89826 | 5.20978 | 6315 ft | 271 kts | 316° |
| 2026-04-28 11:54 | 45.91206 | 5.19201 | 6045 ft | 259 kts | 316° |
| 2026-04-28 11:54 | 45.92407 | 5.17410 | 5741 ft | 247 kts | 302° |
| 2026-04-28 11:54 | 45.93103 | 5.15227 | 5442 ft | 237 kts | 282° |
| 2026-04-28 11:55 | 45.93203 | 5.12894 | 5143 ft | 233 kts | 261° |
| 2026-04-28 11:55 | 45.92724 | 5.10695 | 4757 ft | 232 kts | 241° |
| 2026-04-28 11:55 | 45.91722 | 5.08880 | 4276 ft | 231 kts | 219° |
| 2026-04-28 11:55 | 45.90392 | 5.07760 | 4015 ft | 220 kts | 200° |
| 2026-04-28 11:56 | 45.88913 | 5.07348 | 3819 ft | 209 kts | 182° |
| 2026-04-28 11:56 | 45.87486 | 5.07474 | 3505 ft | 203 kts | 175° |
| 2026-04-28 11:56 | 45.86115 | 5.07646 | 3254 ft | 193 kts | 175° |
| 2026-04-28 11:56 | 45.84794 | 5.07809 | 3015 ft | 187 kts | 175° |
| 2026-04-28 11:57 | 45.83522 | 5.07963 | 2760 ft | 179 kts | 175° |
| 2026-04-28 11:57 | 45.82337 | 5.08108 | 2537 ft | 162 kts | 174° |
| 2026-04-28 11:57 | 45.81267 | 5.08239 | 2325 ft | 146 kts | 174° |
| 2026-04-28 11:57 | 45.80289 | 5.08358 | 2145 ft | 137 kts | 174° |
| 2026-04-28 11:58 | 45.79349 | 5.08472 | 1960 ft | 134 kts | 174° |
| 2026-04-28 11:58 | 45.78425 | 5.08585 | 1787 ft | 133 kts | 174° |
| 2026-04-28 11:58 | 45.77500 | 5.08701 | 1626 ft | 133 kts | 174° |
| 2026-04-28 11:58 | 45.76574 | 5.08811 | 1428 ft | 133 kts | 176° |
| 2026-04-28 11:59 | 45.75652 | 5.08923 | 1266 ft | 133 kts | 175° |
| 2026-04-28 11:59 | 45.74754 | 5.09036 | 1075 ft | 130 kts | 177° |
| 2026-04-28 11:59 | 45.73865 | 5.09142 | 890 ft | 128 kts | 178° |
| 2026-04-28 11:59 | 45.73012 | 5.09249 | 800 ft | 111 kts | 175° |
| 2026-04-28 12:00 | 45.72363 | 5.09328 | 814 ft | 69 kts | 175° |
| 2026-04-28 12:00 | 45.72038 | 5.09366 | 819 ft | 33 kts | 175° |
| 2026-04-28 12:00 | 45.71821 | 5.09354 | 821 ft | 30 kts | 193° |
| 2026-04-28 12:00 | 45.71651 | 5.09246 | 815 ft | 22 kts | 231° |
| 2026-04-28 12:01 | 45.71626 | 5.09015 | 814 ft | 23 kts | 264° |
| 2026-04-28 12:01 | 45.71611 | 5.08785 | 811 ft | 24 kts | 264° |
| 2026-04-28 12:01 | 45.71596 | 5.08570 | 804 ft | 19 kts | 264° |
| 2026-04-28 12:01 | 45.71589 | 5.08468 | 802 ft | 0 kts | 273° |
| 2026-04-28 12:02 | 45.71610 | 5.08463 | 802 ft | 7 kts | 350° |
| 2026-04-28 12:02 | 45.71665 | 5.08449 | 801 ft | 8 kts | 346° |
| 2026-04-28 12:02 | 45.71681 | 5.08379 | 800 ft | 0 kts | 268° |
| 2026-04-28 12:04 | 45.71681 | 5.08372 | 800 ft | 3 kts | 268° |
| 2026-04-28 12:04 | 45.71678 | 5.08321 | 800 ft | 5 kts | 264° |
| 2026-04-28 12:04 | 45.71675 | 5.08274 | 801 ft | 4 kts | 271° |
| 2026-04-28 12:04 | 45.71676 | 5.08267 | 801 ft | 0 kts | 272° |
| 2026-04-28 12:06 | 45.71674 | 5.08246 | 801 ft | 3 kts | 255° |
| 2026-04-28 12:06 | 45.71658 | 5.08231 | 802 ft | 3 kts | 198° |
| 2026-04-28 12:06 | 45.71633 | 5.08221 | 802 ft | 4 kts | 195° |
| 2026-04-28 12:06 | 45.71615 | 5.08215 | 802 ft | 2 kts | 195° |
| 2026-04-28 12:07 | 45.71606 | 5.08211 | 802 ft | 1 kts | 194° |
| 2026-04-28 12:07 | 45.71601 | 5.08209 | 802 ft | 0 kts | 194° |